Time;durP1;ratioP1;P1;durP2;ratioP2;P2;SDS_P1;SDS_P2;PMS_P1;PMS_P2;Temp;Humidity;BMP_temperature;BMP_pressure;BME280_temperature;BME280_humidity;BME280_pressure;Samples;Min_cycle;Max_cycle;Signal;HPM_P1;HPM_P2
2022/04/12 00:00:20;;;;;;;67.15;32.45;;;;;;;26.00;60.78;97570.09;4948249;28;20062;-63
2022/04/12 00:03:10;;;;;;;71.63;31.38;;;;;;;26.12;69.28;97575.81;4946413;28;20461;-64
2022/04/12 00:05:58;;;;;;;69.40;30.33;;;;;;;26.07;66.71;97568.44;4949743;28;20475;-66
2022/04/12 00:08:41;;;;;;;77.70;32.20;;;;;;;25.91;60.17;97576.41;4946281;28;20142;-64
2022/04/12 00:11:31;;;;;;;70.93;31.80;;;;;;;25.92;66.50;97570.94;4947264;28;20142;-64
2022/04/12 00:14:20;;;;;;;79.97;32.45;;;;;;;25.94;63.60;97573.44;4945802;28;20889;-64
2022/04/12 00:20:09;;;;;;;85.20;33.20;;;;;;;25.92;62.32;97588.59;4955151;28;20043;-63
2022/04/12 00:22:59;;;;;;;82.97;32.47;;;;;;;25.93;66.70;97592.91;4950262;28;20137;-63
2022/04/12 00:25:43;;;;;;;65.68;30.83;;;;;;;25.80;61.57;97592.56;4954639;28;20125;-63
2022/04/12 00:28:32;;;;;;;73.70;31.25;;;;;;;25.72;59.81;97589.94;4933132;28;20069;-64
2022/04/12 00:31:15;;;;;;;75.93;29.63;;;;;;;25.93;61.07;97590.25;4951501;28;20132;-63
2022/04/12 00:34:12;;;;;;;67.78;30.25;;;;;;;26.03;64.40;97582.13;4940576;28;20047;-63
2022/04/12 00:36:47;;;;;;;61.05;29.33;;;;;;;26.08;64.09;97591.19;4939950;28;20138;-63
2022/04/12 00:39:37;;;;;;;64.13;27.00;;;;;;;25.99;60.48;97588.75;4927892;28;20055;-63
2022/04/12 00:42:26;;;;;;;52.92;25.98;;;;;;;25.94;62.07;97591.91;4924842;28;20058;-64
2022/04/12 00:45:22;;;;;;;55.25;27.30;;;;;;;25.88;57.14;97589.91;4945075;28;20043;-63
2022/04/12 00:47:57;;;;;;;57.72;25.08;;;;;;;25.81;56.61;97599.50;4928167;29;20441;-63
2022/04/12 00:50:46;;;;;;;59.95;24.60;;;;;;;25.75;61.31;97594.91;4945741;28;20054;-63
2022/04/12 00:53:29;;;;;;;56.38;26.52;;;;;;;25.82;63.71;97595.88;4937837;29;20055;-64
2022/04/12 00:56:25;;;;;;;56.40;24.83;;;;;;;25.78;63.31;97611.22;4939762;28;20051;-65
2022/04/12 00:59:02;;;;;;;55.13;26.60;;;;;;;25.74;65.93;97635.47;4923450;28;20627;-65
2022/04/12 01:01:57;;;;;;;62.65;27.08;;;;;;;25.65;59.03;97655.75;4939005;28;20138;-64
2022/04/12 01:04:33;;;;;;;67.72;27.75;;;;;;;25.72;60.23;97645.38;4939133;29;20491;-65
2022/04/12 01:07:28;;;;;;;83.30;28.83;;;;;;;25.63;57.85;97656.91;4946906;28;20138;-64
2022/04/12 01:10:05;;;;;;;69.57;28.70;;;;;;;25.60;59.45;97642.25;4941328;29;20043;-64
2022/04/12 01:13:01;;;;;;;73.18;28.23;;;;;;;25.62;60.95;97655.28;4938356;29;20538;-64
2022/04/12 01:15:36;;;;;;;56.67;27.00;;;;;;;25.72;66.26;97654.09;4937450;29;20055;-64
2022/04/12 01:18:31;;;;;;;70.60;26.13;;;;;;;25.83;67.05;97645.84;4938522;28;20143;-64
2022/04/12 01:21:06;;;;;;;60.78;25.92;;;;;;;25.82;66.65;97652.13;4935903;29;20375;-64
2022/04/12 01:24:12;;;;;;;72.20;28.10;;;;;;;25.84;66.15;97675.72;4943873;28;20138;-64
2022/04/12 01:27:00;;;;;;;69.82;28.90;;;;;;;25.95;67.72;97669.25;4963670;28;20055;-64
2022/04/12 01:29:49;;;;;;;72.78;28.30;;;;;;;25.92;64.44;97658.06;4965143;28;20422;-64
2022/04/12 01:32:30;;;;;;;71.28;28.10;;;;;;;25.96;70.21;97669.09;4965810;28;20109;-64
2022/04/12 01:35:20;;;;;;;61.13;27.35;;;;;;;26.00;68.16;97672.22;4965522;28;20117;-64
2022/04/12 01:38:02;;;;;;;63.70;28.33;;;;;;;26.10;68.96;97671.03;4965888;28;20053;-64
2022/04/12 01:40:51;;;;;;;71.95;28.33;;;;;;;26.19;72.18;97677.13;4964188;28;20490;-65
2022/04/12 01:43:33;;;;;;;66.97;28.83;;;;;;;26.30;72.76;97676.81;4963591;28;20053;-64
2022/04/12 01:46:24;;;;;;;70.18;29.13;;;;;;;26.28;69.92;97682.25;4965846;28;20502;-64
2022/04/12 01:49:16;;;;;;;81.00;28.73;;;;;;;26.27;67.38;97685.06;4964378;28;20545;-64
2022/04/12 01:52:10;;;;;;;61.05;28.27;;;;;;;26.40;72.98;97681.91;4965253;28;20359;-64
2022/04/12 01:54:59;;;;;;;78.47;29.92;;;;;;;26.53;71.75;97683.00;4959639;28;20055;-64
2022/04/12 01:57:41;;;;;;;76.32;30.08;;;;;;;26.50;66.65;97679.91;4964110;28;20047;-64
2022/04/12 02:00:30;;;;;;;72.28;30.63;;;;;;;26.61;72.85;97685.63;4965122;28;20063;-65
2022/04/12 02:03:12;;;;;;;64.70;30.02;;;;;;;26.67;70.68;97689.38;4964692;28;20054;-64
2022/04/12 02:06:07;;;;;;;93.35;34.05;;;;;;;26.87;71.77;97687.16;4962712;28;20055;-64
2022/04/12 02:08:43;;;;;;;69.28;32.78;;;;;;;26.91;72.09;97694.59;4965296;28;20046;-65
2022/04/12 02:11:38;;;;;;;77.07;33.92;;;;;;;27.03;72.76;97703.81;4965602;28;20058;-64
2022/04/12 02:14:13;;;;;;;74.03;33.85;;;;;;;27.19;71.79;97704.69;4966347;28;20062;-64
2022/04/12 02:17:01;;;;;;;78.28;33.75;;;;;;;27.41;69.82;97709.19;4966161;28;20102;-64
2022/04/12 02:19:43;;;;;;;73.05;35.78;;;;;;;27.66;76.22;97707.22;4966459;28;20043;-64
2022/04/12 02:22:31;;;;;;;83.13;36.50;;;;;;;27.90;73.34;97722.06;4939975;28;20062;-65
2022/04/12 02:25:13;;;;;;;83.18;35.45;;;;;;;28.06;71.30;97720.09;4963842;28;20122;-65
2022/04/12 02:28:08;;;;;;;80.32;35.40;;;;;;;28.25;66.16;97718.00;4966403;28;20053;-65
2022/04/12 02:30:46;;;;;;;75.45;35.65;;;;;;;28.53;65.49;97721.66;4972289;28;20058;-64
2022/04/12 02:33:34;;;;;;;81.43;35.13;;;;;;;28.68;63.02;97732.25;4969034;28;20039;-64
2022/04/12 02:36:17;;;;;;;85.43;35.85;;;;;;;28.85;72.34;97734.56;4924488;29;20510;-65
2022/04/12 02:39:12;;;;;;;83.38;38.28;;;;;;;28.94;70.23;97735.28;4950549;28;20050;-65
2022/04/12 02:41:48;;;;;;;81.00;36.35;;;;;;;28.97;64.92;97736.75;4941774;28;20538;-65
2022/04/12 02:44:37;;;;;;;79.10;36.67;;;;;;;29.09;72.19;97736.06;4966433;28;20051;-65
2022/04/12 02:47:30;;;;;;;96.43;37.35;;;;;;;29.09;69.18;97733.41;4965743;28;20090;-65
2022/04/12 02:50:11;;;;;;;81.60;34.05;;;;;;;29.13;69.40;97726.75;4967868;28;20058;-65
2022/04/12 02:53:01;;;;;;;96.78;35.30;;;;;;;29.22;71.94;97732.75;4968821;28;20054;-65
2022/04/12 02:55:42;;;;;;;87.43;34.22;;;;;;;29.36;75.85;97737.25;4982060;28;20054;-64
2022/04/12 02:58:32;;;;;;;77.60;34.50;;;;;;;29.44;74.55;97734.47;4979337;28;20059;-64
2022/04/12 03:01:13;;;;;;;72.30;34.17;;;;;;;29.47;79.47;97743.88;4967231;28;20050;-65
2022/04/12 03:04:03;;;;;;;91.70;32.90;;;;;;;29.45;72.34;97736.13;4968351;28;20047;-65
2022/04/12 03:06:51;;;;;;;92.28;35.70;;;;;;;29.54;73.98;97739.44;4967659;28;20057;-64
2022/04/12 03:09:34;;;;;;;78.03;32.17;;;;;;;29.56;69.56;97732.94;4968720;28;20050;-65
2022/04/12 03:12:23;;;;;;;82.10;33.97;;;;;;;29.60;73.95;97736.06;4966145;28;20505;-65
2022/04/12 03:15:07;;;;;;;91.25;33.72;;;;;;;29.61;71.07;97741.16;4962199;28;20053;-65
2022/04/12 03:18:02;;;;;;;78.53;33.65;;;;;;;29.75;70.77;97739.47;4962927;28;20126;-64
2022/04/12 03:20:37;;;;;;;77.47;31.42;;;;;;;29.88;66.82;97744.88;4962648;28;20047;-65
2022/04/12 03:23:32;;;;;;;83.78;32.05;;;;;;;30.10;69.90;97750.19;4965676;28;20085;-64
2022/04/12 03:26:13;;;;;;;76.28;30.70;;;;;;;30.18;69.72;97742.09;4946338;28;20714;-64
2022/04/12 03:29:03;;;;;;;66.18;30.98;;;;;;;30.23;68.71;97747.66;4967115;28;20434;-64
2022/04/12 03:31:44;;;;;;;74.38;31.88;;;;;;;30.31;70.58;97739.53;4966098;28;20137;-64
2022/04/12 03:34:36;;;;;;;78.95;32.00;;;;;;;30.42;65.40;97754.94;4967150;28;20069;-64
2022/04/12 03:37:18;;;;;;;108.75;32.85;;;;;;;30.65;56.16;97747.56;4967909;28;20438;-64
2022/04/12 03:40:07;;;;;;;90.70;32.75;;;;;;;30.95;49.68;97752.63;4967022;28;20054;-65
2022/04/12 03:42:55;;;;;;;80.18;31.63;;;;;;;31.12;54.87;97751.31;4967017;28;20055;-65
2022/04/12 03:45:37;;;;;;;77.15;30.90;;;;;;;31.21;51.42;97746.63;4968200;28;20055;-64
2022/04/12 03:48:32;;;;;;;82.22;33.17;;;;;;;31.44;61.13;97755.09;4966411;28;20055;-65
2022/04/12 03:51:07;;;;;;;63.38;29.50;;;;;;;31.48;59.48;97745.69;4966853;28;20054;-65
2022/04/12 03:54:02;;;;;;;68.13;29.95;;;;;;;31.52;57.82;97746.94;4967399;28;20105;-64
2022/04/12 03:56:37;;;;;;;63.83;28.08;;;;;;;31.52;51.71;97745.09;4967589;28;20113;-65
2022/04/12 03:59:25;;;;;;;62.20;28.73;;;;;;;31.49;59.85;97750.81;4967377;28;20070;-64
2022/04/12 04:02:08;;;;;;;85.80;31.00;;;;;;;31.55;58.11;97749.16;4947957;28;20046;-64
2022/04/12 04:04:57;;;;;;;79.50;30.50;;;;;;;31.67;55.71;97757.44;4954376;28;20157;-65
2022/04/12 04:07:39;;;;;;;77.25;35.60;;;;;;;31.81;56.16;97745.78;4958179;28;20719;-65
2022/04/12 04:10:27;;;;;;;88.55;34.80;;;;;;;32.03;49.10;97755.22;4965854;28;20128;-65
2022/04/12 04:13:11;;;;;;;97.15;36.35;;;;;;;32.22;47.75;97751.75;4964961;28;20062;-65
2022/04/12 04:16:06;;;;;;;79.40;37.08;;;;;;;32.42;44.78;97754.38;4959305;28;20047;-63
2022/04/12 04:18:41;;;;;;;83.78;36.63;;;;;;;32.57;43.59;97754.97;4932977;28;20118;-64
2022/04/12 04:21:29;;;;;;;88.13;36.30;;;;;;;32.64;53.57;97757.66;4959716;28;20102;-63
2022/04/12 04:24:12;;;;;;;87.22;34.38;;;;;;;32.76;48.03;97756.00;4961935;28;20644;-64
2022/04/12 04:27:05;;;;;;;111.55;36.88;;;;;;;32.66;57.78;97750.25;4963477;28;20054;-64
2022/04/12 04:29:55;;;;;;;86.40;32.78;;;;;;;32.89;51.91;97763.97;4962403;28;20047;-64
2022/04/12 04:32:37;;;;;;;89.25;33.20;;;;;;;32.83;55.41;97756.81;4963120;28;20061;-63
2022/04/12 04:35:27;;;;;;;88.55;31.42;;;;;;;32.91;56.75;97758.41;4962841;28;20059;-66
2022/04/12 04:38:09;;;;;;;66.18;30.45;;;;;;;32.84;56.62;97755.78;4961080;28;20046;-65
2022/04/12 04:40:58;;;;;;;73.82;27.90;;;;;;;32.83;58.97;97762.13;4946451;28;20047;-66
2022/04/12 04:43:55;;;;;;;65.50;29.35;;;;;;;32.83;57.84;97777.31;4919111;28;20058;-65
2022/04/12 04:46:30;;;;;;;68.32;30.50;;;;;;;32.84;56.02;97761.13;4936981;28;20721;-65
2022/04/12 04:49:29;;;;;;;68.35;29.25;;;;;;;32.71;59.90;97763.81;4937792;28;20054;-65
2022/04/12 04:52:05;;;;;;;77.72;29.40;;;;;;;32.75;50.12;97767.69;4925483;29;20102;-64
2022/04/12 04:54:54;;;;;;;79.15;30.48;;;;;;;32.87;58.25;97758.03;4938090;28;20098;-63
2022/04/12 04:57:36;;;;;;;72.30;30.67;;;;;;;32.92;59.42;97760.06;4946265;28;20103;-64
2022/04/12 05:00:34;;;;;;;77.90;30.27;;;;;;;32.90;57.25;97760.25;4941784;28;20047;-64
2022/04/12 05:03:09;;;;;;;74.95;28.80;;;;;;;32.89;52.23;97760.47;4943348;28;20051;-64
2022/04/12 05:05:57;;;;;;;81.32;30.92;;;;;;;33.11;49.90;97755.69;4946391;28;20051;-65
2022/04/12 05:08:39;;;;;;;80.22;28.23;;;;;;;33.22;49.35;97755.03;4944650;28;20058;-64
2022/04/12 05:11:34;;;;;;;64.03;26.17;;;;;;;33.28;56.57;97748.88;4942178;28;20055;-65
2022/04/12 05:14:09;;;;;;;69.07;27.40;;;;;;;33.43;58.18;97757.41;4945828;28;20055;-64
2022/04/12 05:16:57;;;;;;;64.03;27.23;;;;;;;33.57;57.42;97758.16;4943157;28;20055;-64
2022/04/12 05:19:39;;;;;;;64.43;23.50;;;;;;;33.70;41.31;97761.56;4945072;28;20714;-66
2022/04/12 05:22:28;;;;;;;77.85;25.02;;;;;;;33.85;49.80;97761.28;4935676;28;20051;-64
2022/04/12 05:25:10;;;;;;;73.95;27.15;;;;;;;33.61;46.96;97765.50;4945407;28;20051;-64
2022/04/12 05:27:58;;;;;;;62.38;24.35;;;;;;;33.73;54.75;97763.84;4931993;29;20055;-64
2022/04/12 05:30:40;;;;;;;67.95;25.23;;;;;;;33.47;52.52;97758.63;4921484;29;20048;-64
2022/04/12 05:33:29;;;;;;;60.55;23.20;;;;;;;33.69;47.29;97770.59;4922945;29;20051;-63
2022/04/12 05:36:11;;;;;;;59.95;21.33;;;;;;;33.72;40.80;97772.03;4924955;29;20055;-64
2022/04/12 05:39:06;;;;;;;51.92;21.13;;;;;;;33.75;44.37;97767.13;4927178;29;20479;-63
2022/04/12 05:41:41;;;;;;;62.55;19.48;;;;;;;33.76;42.30;97763.38;4928720;29;20071;-65
2022/04/12 05:44:34;;;;;;;52.10;18.42;;;;;;;33.91;47.27;97765.78;4929180;29;20051;-65
2022/04/12 05:47:17;;;;;;;53.75;18.80;;;;;;;33.80;54.05;97759.25;4931862;29;20062;-66
2022/04/12 05:50:06;;;;;;;49.05;15.80;;;;;;;33.73;42.58;97763.84;4932563;29;20040;-66
2022/04/12 05:52:49;;;;;;;67.00;16.95;;;;;;;33.89;40.58;97765.16;4934096;29;20062;-64
2022/04/12 05:55:44;;;;;;;41.15;15.43;;;;;;;34.25;46.66;97761.81;4929175;29;20371;-64
2022/04/12 05:58:19;;;;;;;60.75;16.23;;;;;;;34.50;44.46;97765.28;4929083;29;20142;-64
2022/04/12 06:01:14;;;;;;;49.00;15.43;;;;;;;35.09;38.83;97769.22;4945452;29;20047;-63
2022/04/12 06:03:49;;;;;;;47.97;14.45;;;;;;;35.22;39.04;97763.72;4947231;29;20419;-64
2022/04/12 06:06:44;;;;;;;55.05;14.15;;;;;;;35.08;37.53;97762.22;4947121;29;20438;-64
2022/04/12 06:09:19;;;;;;;51.78;14.15;;;;;;;35.01;37.23;97761.50;4929479;29;20051;-65
2022/04/12 06:12:08;;;;;;;55.30;12.82;;;;;;;35.16;37.27;97761.91;4923450;29;20082;-65
2022/04/12 06:14:50;;;;;;;35.83;13.85;;;;;;;35.35;37.03;97753.88;4924373;29;20476;-69
2022/04/12 06:17:39;;;;;;;38.47;12.80;;;;;;;35.47;36.25;97754.75;4931109;29;20533;-68
2022/04/12 06:20:23;;;;;;;50.65;13.93;;;;;;;35.79;34.92;97753.47;4920674;29;20078;-68
2022/04/12 06:23:18;;;;;;;38.83;13.13;;;;;;;36.14;36.32;97755.41;4933492;29;20055;-68
2022/04/12 06:26:00;;;;;;;33.80;11.88;;;;;;;36.21;33.28;97756.16;4931525;29;20058;-69
2022/04/12 06:28:50;;;;;;;28.13;10.82;;;;;;;36.22;30.66;97747.88;4897618;29;20036;-69
2022/04/12 06:31:32;;;;;;;30.50;10.73;;;;;;;36.22;29.69;97750.56;4897005;29;20122;-70
2022/04/12 06:34:21;;;;;;;33.15;11.07;;;;;;;36.23;30.46;97749.50;4932107;29;20571;-69
2022/04/12 06:37:02;;;;;;;41.63;8.98;;;;;;;36.11;31.74;97742.44;4932138;29;20621;-68
2022/04/12 06:39:52;;;;;;;35.10;9.88;;;;;;;35.91;32.08;97740.94;4929827;29;20048;-68
2022/04/12 06:42:34;;;;;;;37.05;10.57;;;;;;;35.94;31.19;97743.13;4911018;29;20056;-69
2022/04/12 06:45:23;;;;;;;26.60;9.88;;;;;;;35.92;30.04;97745.22;4927843;29;20054;-69
2022/04/12 06:48:05;;;;;;;27.67;10.30;;;;;;;35.95;29.53;97738.59;4930317;29;20063;-70
2022/04/12 06:50:54;;;;;;;33.70;10.77;;;;;;;36.19;29.88;97726.03;4927466;29;20043;-66
2022/04/12 06:53:42;;;;;;;31.75;10.52;;;;;;;36.33;34.54;97724.75;4927386;29;20075;-66
2022/04/12 06:56:29;;;;;;;43.63;11.45;;;;;;;36.46;29.39;97729.91;4930968;29;20051;-65
2022/04/12 06:59:25;;;;;;;36.42;10.48;;;;;;;36.75;32.37;97720.91;4929967;29;20055;-65
2022/04/12 07:02:01;;;;;;;31.55;9.80;;;;;;;36.72;31.63;97715.16;4930666;29;20055;-65
2022/04/12 07:04:56;;;;;;;;;;;;;;;36.92;29.24;97717.47;4924182;29;20056;-64
2022/04/12 07:07:31;;;;;;;38.00;9.48;;;;;;;37.05;28.08;97720.69;4928587;29;19930;-65
2022/04/12 07:10:19;;;;;;;35.78;8.07;;;;;;;37.13;26.07;97711.47;4929291;29;20052;-65
2022/04/12 07:13:09;;;;;;;26.20;7.45;;;;;;;37.18;26.42;97700.84;4929424;29;20115;-65
2022/04/12 07:16:04;;;;;;;24.67;7.97;;;;;;;36.88;27.30;97701.00;4918758;29;20811;-65
2022/04/12 07:18:41;;;;;;;22.83;7.95;;;;;;;36.63;28.53;97695.09;4913414;29;20137;-65
2022/04/12 07:21:36;;;;;;;24.42;7.53;;;;;;;36.75;29.09;97693.22;4915603;29;20052;-65
2022/04/12 07:24:11;;;;;;;43.85;10.30;;;;;;;36.82;24.26;97691.22;4919492;29;20138;-65
2022/04/12 07:27:06;;;;;;;22.30;7.30;;;;;;;37.14;25.48;97697.81;4919622;28;20058;-65
2022/04/12 07:29:56;;;;;;;30.80;8.23;;;;;;;37.16;24.81;97686.81;4931003;29;20122;-65
2022/04/12 07:32:45;;;;;;;27.08;7.30;;;;;;;37.04;25.70;97684.13;4937899;29;20062;-66
2022/04/12 07:35:27;;;;;;;23.00;7.05;;;;;;;37.22;27.15;97680.47;4927951;29;20052;-66
2022/04/12 07:38:16;;;;;;;25.08;7.82;;;;;;;37.31;24.76;97684.41;4928961;29;20606;-64
2022/04/12 07:40:58;;;;;;;29.65;8.30;;;;;;;37.13;23.69;97669.31;4928994;29;20718;-65
2022/04/12 07:43:47;;;;;;;28.95;8.52;;;;;;;36.98;25.00;97666.28;4926646;29;20118;-65
2022/04/12 07:46:28;;;;;;;38.45;9.18;;;;;;;37.19;26.75;97662.16;4923371;29;20047;-64
2022/04/12 07:49:18;;;;;;;41.85;9.60;;;;;;;37.13;26.23;97658.56;4584040;29;10000206;-64
2022/04/12 07:52:00;;;;;;;27.80;8.55;;;;;;;37.19;27.57;97651.41;4926570;29;20048;-65
2022/04/12 07:54:49;;;;;;;29.25;8.80;;;;;;;37.10;27.79;97653.66;4910603;29;20154;-64
2022/04/12 07:57:31;;;;;;;52.53;10.80;;;;;;;36.75;26.92;97647.59;4935681;29;20047;-66
2022/04/12 08:00:23;;;;;;;26.70;9.38;;;;;;;36.47;27.95;97648.34;4932741;29;20071;-65
2022/04/12 08:03:05;;;;;;;29.33;7.75;;;;;;;36.28;29.96;97634.25;4918150;29;20061;-65
2022/04/12 08:05:55;;;;;;;21.33;7.55;;;;;;;36.04;30.50;97627.22;4918053;29;20134;-65
2022/04/12 08:08:50;;;;;;;20.90;7.30;;;;;;;35.92;30.35;97626.44;4921984;29;20054;-65
2022/04/12 08:11:25;;;;;;;22.58;8.02;;;;;;;35.93;25.49;97625.34;4918438;29;20365;-66
2022/04/12 08:14:14;;;;;;;30.73;7.95;;;;;;;35.97;26.72;97622.00;4922335;29;20055;-67
2022/04/12 08:16:56;;;;;;;33.80;7.78;;;;;;;35.77;30.13;97618.81;4918553;29;20066;-65
2022/04/12 08:19:51;;;;;;;28.60;8.45;;;;;;;35.91;29.63;97609.53;4922325;29;20054;-65
2022/04/12 08:22:26;;;;;;;33.08;9.45;;;;;;;36.21;29.40;97601.34;4925771;29;20135;-65
2022/04/12 08:25:36;;;;;;;28.33;8.77;;;;;;;36.36;29.44;97601.69;4911217;28;20055;-65
2022/04/12 08:28:25;;;;;;;29.63;8.45;;;;;;;36.52;31.07;97600.13;4929093;29;20055;-64
2022/04/12 08:31:14;;;;;;;33.83;8.55;;;;;;;36.62;34.43;97588.78;4921539;29;20515;-64
2022/04/12 08:33:57;;;;;;;39.30;9.07;;;;;;;36.62;27.41;97589.59;4922109;29;20143;-66
2022/04/12 08:36:48;;;;;;;19.77;7.88;;;;;;;36.85;26.66;97585.19;4911397;29;20366;-64
2022/04/12 08:39:29;;;;;;;26.67;8.52;;;;;;;36.68;29.28;97569.84;4909804;29;20052;-64
2022/04/12 08:42:19;;;;;;;26.92;8.60;;;;;;;36.58;28.81;97566.13;4913687;29;20055;-64
2022/04/12 08:45:06;;;;;;;33.95;8.80;;;;;;;36.50;28.71;97561.94;4914672;29;20056;-63
2022/04/12 08:47:58;;;;;;;29.60;9.98;;;;;;;36.54;28.33;97557.75;4910897;29;20156;-66
2022/04/12 08:50:48;;;;;;;32.75;7.97;;;;;;;36.53;27.07;97557.97;4909005;29;20495;-65
2022/04/12 08:53:30;;;;;;;25.40;7.32;;;;;;;36.64;24.62;97552.56;4910115;29;21449;-64
2022/04/12 08:56:19;;;;;;;32.80;7.63;;;;;;;36.65;26.95;97542.63;4912105;29;20145;-63
2022/04/12 08:59:10;;;;;;;23.00;7.28;;;;;;;36.70;25.94;97546.28;4906545;29;20048;-66
2022/04/12 09:01:52;;;;;;;40.67;8.65;;;;;;;36.78;23.88;97537.84;4908675;29;20055;-62
2022/04/12 09:04:41;;;;;;;33.45;7.38;;;;;;;36.78;25.04;97527.09;4909311;29;20067;-63
2022/04/12 09:07:27;;;;;;;39.90;9.30;;;;;;;36.67;27.04;97521.75;4910165;29;20061;-69
2022/04/12 09:10:16;;;;;;;19.27;7.80;;;;;;;36.56;28.86;97518.03;4911892;29;20062;-66
2022/04/12 09:13:11;;;;;;;24.20;7.30;;;;;;;36.49;30.20;97511.19;4912467;29;20453;-66
2022/04/12 09:16:06;;;;;;;30.08;7.85;;;;;;;36.35;29.03;97500.75;4910673;29;20507;-64
2022/04/12 09:19:02;;;;;;;19.83;8.30;;;;;;;36.33;29.59;97492.13;4908602;29;20702;-65
2022/04/12 09:21:55;;;;;;;24.58;7.47;;;;;;;36.33;28.18;97488.63;4908383;29;20335;-66
2022/04/12 09:24:42;;;;;;;37.88;7.78;;;;;;;36.19;30.99;97473.88;4914509;28;20055;-64
2022/04/12 09:27:35;;;;;;;32.33;8.95;;;;;;;36.37;29.23;97479.88;4912531;29;20047;-65
2022/04/12 09:30:22;;;;;;;30.23;9.88;;;;;;;36.30;27.23;97473.00;4914460;29;20055;-66
2022/04/12 09:33:11;;;;;;;35.50;8.50;;;;;;;36.33;27.93;97465.28;4924280;29;20075;-65
2022/04/12 09:35:53;;;;;;;21.45;8.27;;;;;;;36.25;26.32;97467.53;4925834;29;20051;-65
2022/04/12 09:38:45;;;;;;;30.52;8.35;;;;;;;36.19;28.49;97468.50;4924611;29;20487;-66
2022/04/12 09:41:27;;;;;;;31.60;8.27;;;;;;;36.32;28.09;97452.91;4925496;29;20075;-65
2022/04/12 09:44:17;;;;;;;32.65;7.97;;;;;;;36.22;29.87;97450.06;4924248;29;20108;-66
2022/04/12 09:47:12;;;;;;;20.08;6.85;;;;;;;36.20;28.79;97449.47;4925837;29;20127;-67
2022/04/12 09:49:48;;;;;;;25.25;7.45;;;;;;;36.09;27.66;97444.13;4925237;29;20051;-67
2022/04/12 09:52:45;;;;;;;30.65;7.68;;;;;;;35.87;29.79;97444.78;4926924;29;20048;-65
2022/04/12 09:55:36;;;;;;;25.70;7.32;;;;;;;36.14;27.36;97439.69;4929115;29;20043;-64
2022/04/12 09:58:26;;;;;;;23.85;7.63;;;;;;;36.47;26.75;97438.16;4928176;29;20055;-64
2022/04/12 10:01:08;;;;;;;23.55;6.75;;;;;;;36.38;29.35;97427.00;4910252;29;20158;-66
2022/04/12 10:04:05;;;;;;;20.15;7.40;;;;;;;36.12;26.48;97424.88;4925806;29;20044;-65
2022/04/12 10:07:01;;;;;;;25.95;7.45;;;;;;;36.02;28.28;97417.44;4912710;29;20126;-65
2022/04/12 10:09:40;;;;;;;20.63;7.72;;;;;;;35.85;27.95;97419.25;4929104;29;20056;-65
2022/04/12 10:12:29;;;;;;;28.48;8.15;;;;;;;35.75;26.90;97414.53;4926358;29;20352;-64
2022/04/12 10:15:13;;;;;;;48.90;9.13;;;;;;;35.83;27.51;97403.41;4928845;29;20542;-67
2022/04/12 10:18:09;;;;;;;31.13;8.43;;;;;;;35.82;29.17;97409.00;4926591;29;20048;-65
2022/04/12 10:20:44;;;;;;;30.30;8.63;;;;;;;35.81;30.42;97400.16;4928569;29;20114;-66
2022/04/12 10:23:34;;;;;;;29.05;8.15;;;;;;;35.83;29.96;97395.38;4928004;29;20788;-65
2022/04/12 10:26:27;;;;;;;28.83;8.35;;;;;;;35.84;30.66;97391.63;4942173;29;20054;-66
2022/04/12 10:29:09;;;;;;;30.02;9.40;;;;;;;35.79;28.70;97394.22;4948028;29;20054;-66
2022/04/12 10:32:10;;;;;;;34.50;9.40;;;;;;;35.90;27.30;97389.88;4948498;29;20048;-64
2022/04/12 10:35:12;;;;;;;23.02;8.57;;;;;;;35.72;31.38;97374.78;4947375;29;20047;-66
2022/04/12 10:37:57;;;;;;;35.40;7.77;;;;;;;35.87;27.09;97379.59;4945489;29;20739;-66
2022/04/12 10:41:14;;;;;;;30.60;7.40;;;;;;;35.62;29.01;97375.34;4945576;28;20043;-67
2022/04/12 10:44:02;;;;;;;24.48;9.80;;;;;;;35.59;29.10;97378.53;4930796;29;20479;-65
2022/04/12 10:46:51;;;;;;;29.60;9.13;;;;;;;35.45;31.58;97366.41;4947508;28;20059;-65
2022/04/12 10:49:42;;;;;;;24.27;7.35;;;;;;;35.29;30.35;97362.59;4945578;29;20055;-64
2022/04/12 10:52:36;;;;;;;25.33;8.20;;;;;;;35.20;31.07;97347.91;4942608;28;20075;-64
2022/04/12 10:55:30;;;;;;;24.45;7.97;;;;;;;35.19;31.34;97365.06;4942585;28;20114;-64
2022/04/12 10:58:29;;;;;;;29.73;7.57;;;;;;;35.28;27.74;97366.31;4944348;29;20039;-66
2022/04/12 11:01:35;;;;;;;23.63;8.27;;;;;;;35.16;31.65;97351.28;4941869;29;20051;-64
2022/04/12 11:04:27;;;;;;;29.13;7.65;;;;;;;34.98;33.50;97351.41;4945230;28;20059;-64
2022/04/12 11:07:09;;;;;;;36.47;8.70;;;;;;;35.14;27.90;97362.25;4945789;29;20047;-66
2022/04/12 11:10:20;;;;;;;34.50;7.78;;;;;;;34.99;30.58;97350.38;4945621;29;20063;-66
2022/04/12 11:13:10;;;;;;;32.05;8.88;;;;;;;34.87;31.76;97345.03;4939862;29;20114;-64
2022/04/12 11:16:09;;;;;;;28.08;7.50;;;;;;;34.86;30.43;97340.72;4943696;29;20071;-64
2022/04/12 11:18:53;;;;;;;34.72;8.18;;;;;;;34.76;31.37;97335.97;4945040;28;20047;-65
2022/04/12 11:21:57;;;;;;;28.63;8.15;;;;;;;34.72;29.33;97340.09;4945846;29;20071;-68
2022/04/12 11:24:32;;;;;;;32.72;8.07;;;;;;;34.66;30.33;97340.22;4946710;28;20129;-65
2022/04/12 11:27:33;;;;;;;35.38;9.35;;;;;;;34.55;32.71;97340.00;4928592;29;20052;-64
2022/04/12 11:30:13;;;;;;;31.77;9.90;;;;;;;34.42;33.64;97334.84;4927692;29;20035;-65
2022/04/12 11:33:02;;;;;;;34.97;8.65;;;;;;;34.32;33.37;97317.75;4909516;29;20051;-64
2022/04/12 11:35:44;;;;;;;36.75;8.90;;;;;;;34.21;34.66;97330.00;4927095;29;20066;-64
2022/04/12 11:38:39;;;;;;;31.60;8.20;;;;;;;34.09;38.52;97324.63;4927131;29;20622;-64
2022/04/12 11:41:15;;;;;;;42.95;10.02;;;;;;;34.01;34.84;97332.16;4926254;29;20063;-65
2022/04/12 11:44:06;;;;;;;32.33;9.43;;;;;;;33.94;34.73;97329.56;4924498;29;20055;-63
2022/04/12 11:46:48;;;;;;;28.30;7.78;;;;;;;33.87;33.15;97320.84;4926611;29;20142;-65
2022/04/12 11:49:39;;;;;;;36.97;10.20;;;;;;;34.12;28.77;97324.19;4908542;29;20103;-64
2022/04/12 11:52:22;;;;;;;41.60;8.82;;;;;;;34.05;32.53;97328.00;4925886;29;20770;-64
2022/04/12 11:55:12;;;;;;;34.80;8.35;;;;;;;33.93;33.98;97322.59;4927650;29;20059;-64
2022/04/12 11:58:01;;;;;;;31.55;7.85;;;;;;;33.85;34.79;97314.91;4924651;29;20055;-62
2022/04/12 12:00:43;;;;;;;38.72;8.63;;;;;;;33.74;35.05;97315.69;4929915;29;20062;-64
2022/04/12 12:03:32;;;;;;;28.75;8.45;;;;;;;33.57;35.91;97315.47;4926848;29;20051;-62
2022/04/12 12:06:21;;;;;;;32.92;9.00;;;;;;;33.52;34.58;97319.88;4932977;29;20487;-65
2022/04/12 12:09:03;;;;;;;28.50;8.77;;;;;;;33.35;36.55;97320.47;4911804;29;20419;-65
2022/04/12 12:11:52;;;;;;;26.77;7.28;;;;;;;33.27;36.18;97318.09;4927790;29;20040;-65
2022/04/12 12:14:43;;;;;;;32.92;7.85;;;;;;;33.20;35.25;97313.84;4927304;29;20044;-67
2022/04/12 12:17:28;;;;;;;38.45;15.07;;;;;;;33.11;35.51;97316.00;4921444;29;20071;-67
2022/04/12 12:20:18;;;;;;;37.63;14.65;;;;;;;33.07;35.26;97314.78;4928672;29;20487;-67
2022/04/12 12:23:03;;;;;;;43.70;16.25;;;;;;;32.93;38.99;97318.66;4928621;29;20051;-65
2022/04/12 12:25:55;;;;;;;33.60;14.48;;;;;;;32.78;39.21;97315.53;4927460;29;20051;-68
2022/04/12 12:28:44;;;;;;;29.33;11.57;;;;;;;32.67;43.30;97317.00;4928209;29;20067;-65
2022/04/12 12:31:26;;;;;;;31.80;14.63;;;;;;;32.59;40.18;97320.78;4926831;29;20066;-64
2022/04/12 12:34:41;;;;;;;47.90;12.43;;;;;;;32.48;48.60;97302.03;4926906;29;20475;-68
2022/04/12 12:37:16;;;;;;;32.92;12.35;;;;;;;32.25;49.53;97316.75;4928410;29;20056;-62
2022/04/12 12:40:30;;;;;;;50.20;13.63;;;;;;;32.16;44.28;97315.41;4928413;29;20058;-65
2022/04/12 12:43:08;;;;;;;42.05;15.50;;;;;;;32.03;50.60;97307.44;4927890;29;20057;-68
2022/04/12 12:46:07;;;;;;;48.97;16.05;;;;;;;31.88;51.52;97314.94;4923243;29;20058;-67
2022/04/12 12:48:50;;;;;;;35.40;14.77;;;;;;;31.84;53.09;97305.75;4925275;29;20040;-65
2022/04/12 12:51:40;;;;;;;37.30;12.05;;;;;;;31.76;49.07;97312.16;4925766;29;20726;-68
2022/04/12 12:54:26;;;;;;;44.92;14.85;;;;;;;31.69;50.50;97316.66;4912431;29;20112;-68